createdAt,value
2022-08-19T00:02:01.055Z,20.60
2022-08-19T00:04:33.864Z,16.67
2022-08-19T00:07:06.040Z,16.42
2022-08-19T00:09:35.576Z,22.35
2022-08-19T00:12:05.157Z,17.23
2022-08-19T00:14:34.290Z,21.08
2022-08-19T00:17:03.921Z,14.90
2022-08-19T00:19:33.448Z,17.73
2022-08-19T00:22:04.707Z,20.13
2022-08-19T00:24:34.412Z,18.52
2022-08-19T00:27:26.144Z,19.13
2022-08-19T00:29:53.980Z,16.80
2022-08-19T00:32:23.883Z,20.25
2022-08-19T00:34:54.249Z,33.75
2022-08-19T00:37:26.874Z,21.95
2022-08-19T00:39:56.747Z,17.15
2022-08-19T00:42:29.255Z,13.75
2022-08-19T00:44:58.705Z,21.40
2022-08-19T00:47:27.760Z,19.60
2022-08-19T00:50:00.202Z,20.88
2022-08-19T00:52:34.483Z,19.38
2022-08-19T00:55:05.344Z,22.38
2022-08-19T00:57:40.041Z,25.13
2022-08-19T01:00:12.524Z,23.00
2022-08-19T01:02:42.653Z,24.42
2022-08-19T01:05:16.027Z,25.90
2022-08-19T01:07:46.778Z,33.53
2022-08-19T01:10:20.392Z,28.50
2022-08-19T01:12:50.507Z,28.90
2022-08-19T01:15:23.109Z,29.48
2022-08-19T01:17:52.704Z,25.00
2022-08-19T01:20:24.743Z,25.25
2022-08-19T01:22:58.594Z,27.05
2022-08-19T01:25:31.408Z,25.63
2022-08-19T01:28:10.790Z,28.08
2022-08-19T01:30:44.360Z,30.00
2022-08-19T01:33:20.186Z,25.48
2022-08-19T01:35:52.422Z,24.20
2022-08-19T01:38:26.575Z,26.02
2022-08-19T01:40:56.097Z,22.40
2022-08-19T01:43:25.178Z,23.05
2022-08-19T01:45:55.151Z,25.02
2022-08-19T01:48:24.605Z,31.90
2022-08-19T01:50:53.633Z,33.15
2022-08-19T01:53:24.223Z,25.65
2022-08-19T01:56:00.207Z,30.25
2022-08-19T01:58:33.423Z,28.52
2022-08-19T02:01:02.612Z,29.52
2022-08-19T02:03:31.901Z,30.33
2022-08-19T02:06:03.558Z,30.35
2022-08-19T02:08:36.852Z,26.48
2022-08-19T02:11:06.941Z,24.35
2022-08-19T02:13:37.830Z,24.95
2022-08-19T02:16:07.100Z,30.38
2022-08-19T02:18:36.450Z,24.67
2022-08-19T02:21:06.014Z,24.15
2022-08-19T02:23:36.666Z,24.80
2022-08-19T02:26:05.772Z,22.90
2022-08-19T02:28:34.836Z,28.67
2022-08-19T02:31:04.051Z,33.40
2022-08-19T02:33:33.135Z,23.63
2022-08-19T02:36:05.102Z,24.38
2022-08-19T02:38:34.437Z,22.15
2022-08-19T02:41:10.899Z,21.25
2022-08-19T02:43:44.453Z,25.80
2022-08-19T02:46:32.949Z,26.02
2022-08-19T02:49:06.002Z,27.50
2022-08-19T02:51:37.515Z,31.70
2022-08-19T02:54:08.349Z,36.65
2022-08-19T02:56:39.924Z,33.03
2022-08-19T02:59:12.513Z,31.65
2022-08-19T03:01:43.446Z,35.08
2022-08-19T03:04:15.164Z,42.33
2022-08-19T03:06:47.281Z,32.67
2022-08-19T03:09:17.317Z,30.45
2022-08-19T03:11:49.861Z,45.67
2022-08-19T03:14:22.121Z,36.28
2022-08-19T03:16:53.468Z,38.70
2022-08-19T03:19:23.243Z,29.33
2022-08-19T03:21:53.049Z,35.30
2022-08-19T03:24:22.678Z,32.92
2022-08-19T03:26:58.598Z,26.67
2022-08-19T03:29:30.766Z,22.85
2022-08-19T03:32:04.609Z,29.50
2022-08-19T03:34:36.355Z,25.13
2022-08-19T03:37:07.983Z,25.15
2022-08-19T03:39:39.290Z,27.48
2022-08-19T03:42:38.765Z,18.38
2022-08-19T03:44:59.876Z,21.35
2022-08-19T03:47:29.020Z,19.80
2022-08-19T03:49:58.046Z,28.88
2022-08-19T03:52:27.103Z,20.58
2022-08-19T03:54:56.190Z,23.65
2022-08-19T03:57:31.993Z,17.10
2022-08-19T04:00:06.842Z,24.45
2022-08-19T04:02:58.798Z,30.30
2022-08-19T04:05:30.606Z,26.17
2022-08-19T04:08:00.220Z,22.13
2022-08-19T04:10:30.226Z,24.98
2022-08-19T04:13:00.603Z,24.00
2022-08-19T04:15:34.430Z,25.92
2022-08-19T04:18:03.692Z,32.38
2022-08-19T04:20:32.716Z,29.83
2022-08-19T04:23:01.807Z,23.15
2022-08-19T04:25:30.941Z,24.77
2022-08-19T04:28:01.488Z,24.60
2022-08-19T04:30:30.650Z,30.70
2022-08-19T04:32:59.861Z,27.98
2022-08-19T04:35:28.956Z,32.15
2022-08-19T04:37:58.027Z,21.65
2022-08-19T04:40:44.693Z,32.78
2022-08-19T04:43:16.573Z,28.15
2022-08-19T04:45:46.372Z,27.05
2022-08-19T04:48:26.705Z,23.88
2022-08-19T04:50:58.989Z,34.85
2022-08-19T04:53:29.755Z,30.00
2022-08-19T04:56:09.422Z,28.83
2022-08-19T04:58:43.356Z,24.27
2022-08-19T05:01:13.890Z,26.50
2022-08-19T05:03:43.925Z,26.00
2022-08-19T05:06:15.154Z,29.75
2022-08-19T05:08:45.927Z,23.25
2022-08-19T05:11:18.485Z,18.75
2022-08-19T05:13:49.970Z,25.25
2022-08-19T05:16:21.289Z,23.15
2022-08-19T05:19:09.050Z,20.15
2022-08-19T05:21:58.494Z,27.80
2022-08-19T05:24:28.070Z,23.42
2022-08-19T05:27:00.210Z,28.75
2022-08-19T05:29:36.444Z,25.48
2022-08-19T05:32:09.803Z,22.25
2022-08-19T05:34:40.309Z,22.20
2022-08-19T05:37:10.077Z,25.73
2022-08-19T05:39:41.643Z,25.88
2022-08-19T05:42:13.434Z,21.90
2022-08-19T05:44:46.543Z,30.13
2022-08-19T05:47:17.419Z,26.50
2022-08-19T05:49:47.047Z,29.90
2022-08-19T05:52:19.074Z,26.65
2022-08-19T05:54:51.970Z,27.45
2022-08-19T05:57:22.172Z,34.78
2022-08-19T05:59:58.525Z,29.23
2022-08-19T06:02:28.822Z,34.70
2022-08-19T06:04:58.067Z,26.23
2022-08-19T06:07:27.417Z,28.17
2022-08-19T06:10:00.332Z,32.13
2022-08-19T06:12:32.694Z,30.77
2022-08-19T06:15:05.343Z,29.23
2022-08-19T06:17:35.782Z,31.25
2022-08-19T06:20:07.187Z,33.15
2022-08-19T06:22:40.910Z,27.70
2022-08-19T06:25:11.117Z,35.20
2022-08-19T06:27:53.372Z,35.60
2022-08-19T06:30:31.546Z,28.95
2022-08-19T06:33:01.222Z,32.53
2022-08-19T06:35:31.141Z,30.88
2022-08-19T06:38:00.323Z,30.33
2022-08-19T06:40:29.491Z,32.80
2022-08-19T06:43:01.279Z,35.35
2022-08-19T06:45:34.836Z,30.65
2022-08-19T06:48:05.530Z,31.98
2022-08-19T06:50:34.816Z,23.80
2022-08-19T06:53:06.918Z,34.83
2022-08-19T06:55:36.304Z,24.48
2022-08-19T06:58:06.206Z,33.55
2022-08-19T07:00:37.617Z,27.00
2022-08-19T07:03:08.764Z,22.77
2022-08-19T07:05:45.311Z,28.02
2022-08-19T07:08:15.756Z,21.73
2022-08-19T07:10:46.559Z,27.40
2022-08-19T07:13:15.854Z,29.73
2022-08-19T07:15:47.323Z,28.63
2022-08-19T07:18:16.441Z,25.55
2022-08-19T07:20:46.258Z,21.23
2022-08-19T07:23:16.550Z,27.63
2022-08-19T07:25:52.763Z,30.25
2022-08-19T07:28:24.778Z,25.27
2022-08-19T07:30:55.740Z,26.13
2022-08-19T07:33:24.790Z,29.35
2022-08-19T07:35:57.066Z,26.08
2022-08-19T07:38:26.197Z,28.10
2022-08-19T07:40:56.265Z,27.85
2022-08-19T07:43:26.092Z,29.00
2022-08-19T07:46:05.843Z,32.22
2022-08-19T07:48:35.297Z,33.70
2022-08-19T07:51:09.099Z,27.77
2022-08-19T07:53:39.983Z,27.35
2022-08-19T07:56:10.144Z,31.70
2022-08-19T07:58:42.613Z,33.17
2022-08-19T08:01:17.938Z,28.00
2022-08-19T08:04:13.374Z,32.53
2022-08-19T08:07:00.860Z,31.90
2022-08-19T08:09:34.733Z,29.75
2022-08-19T08:12:33.034Z,30.30
2022-08-19T08:14:58.871Z,31.35
2022-08-19T08:17:49.837Z,29.80
2022-08-19T08:20:21.674Z,25.83
2022-08-19T08:23:08.467Z,28.23
2022-08-19T08:25:38.862Z,21.67
2022-08-19T08:28:11.465Z,25.58
2022-08-19T08:30:48.295Z,23.02
2022-08-19T08:33:34.091Z,27.17
2022-08-19T08:36:04.851Z,23.40
2022-08-19T08:38:39.621Z,22.40
2022-08-19T08:41:21.222Z,34.67
2022-08-19T08:43:53.211Z,28.85
2022-08-19T08:46:32.137Z,23.92
2022-08-19T08:49:08.410Z,30.08
2022-08-19T08:51:44.786Z,22.25
2022-08-19T08:54:25.788Z,28.08
2022-08-19T08:56:56.266Z,24.48
2022-08-19T08:59:32.107Z,27.35
2022-08-19T09:02:01.718Z,23.23
2022-08-19T09:04:32.486Z,22.33
2022-08-19T09:07:36.077Z,27.83
2022-08-19T09:10:17.768Z,18.92
2022-08-19T09:12:56.282Z,25.92
2022-08-19T09:15:36.723Z,29.55
2022-08-19T09:18:07.486Z,21.67
2022-08-19T09:20:38.006Z,29.52
2022-08-19T09:23:12.761Z,20.02
2022-08-19T09:25:42.001Z,25.58
2022-08-19T09:28:15.069Z,27.17
2022-08-19T09:30:55.243Z,24.27
2022-08-19T09:33:24.485Z,18.98
2022-08-19T09:36:08.360Z,24.73
2022-08-19T09:38:43.692Z,21.25
2022-08-19T09:41:15.762Z,27.52
2022-08-19T09:43:48.524Z,24.67
2022-08-19T09:46:18.960Z,32.10
2022-08-19T09:48:49.449Z,28.35
2022-08-19T09:51:23.297Z,23.65
2022-08-19T09:53:54.859Z,23.67
2022-08-19T09:56:25.126Z,20.27
2022-08-19T09:58:54.360Z,24.42
2022-08-19T10:01:25.333Z,22.27
2022-08-19T10:03:56.993Z,21.30
2022-08-19T10:06:43.849Z,24.67
2022-08-19T10:09:18.259Z,19.27
2022-08-19T10:12:03.178Z,20.48
2022-08-19T10:14:32.564Z,18.73
2022-08-19T10:17:19.824Z,17.98
2022-08-19T10:19:55.359Z,19.33
2022-08-19T10:22:26.573Z,15.38
2022-08-19T10:24:56.086Z,22.00
2022-08-19T10:27:26.323Z,19.60
2022-08-19T10:29:55.808Z,15.15
2022-08-19T10:32:34.403Z,17.80
2022-08-19T10:35:06.836Z,18.38
2022-08-19T10:37:42.282Z,18.83
2022-08-19T10:40:27.344Z,21.17
2022-08-19T10:42:57.348Z,16.20
2022-08-19T10:45:28.173Z,16.63
2022-08-19T10:47:57.832Z,14.05
2022-08-19T10:50:45.335Z,15.93
2022-08-19T10:53:15.984Z,17.40
2022-08-19T10:56:05.086Z,15.90
2022-08-19T10:58:34.241Z,15.80
2022-08-19T11:01:03.460Z,17.27
2022-08-19T11:03:32.578Z,10.85
2022-08-19T11:06:02.978Z,20.05
2022-08-19T11:08:33.466Z,15.32
2022-08-19T11:11:04.520Z,16.42
2022-08-19T11:13:38.581Z,13.38
2022-08-19T11:16:10.569Z,22.20
2022-08-19T11:18:41.214Z,17.55
2022-08-19T11:21:12.528Z,16.83
2022-08-19T11:23:44.336Z,15.23
2022-08-19T11:26:13.827Z,17.83
2022-08-19T11:28:42.996Z,17.45
2022-08-19T11:31:13.825Z,20.10
2022-08-19T11:33:47.575Z,13.45
2022-08-19T11:36:18.368Z,14.45
2022-08-19T11:38:49.919Z,14.40
2022-08-19T11:41:22.041Z,14.43
2022-08-19T11:43:58.966Z,16.60
2022-08-19T11:46:30.726Z,16.83
2022-08-19T11:49:01.443Z,12.43
2022-08-19T11:51:31.220Z,24.98
2022-08-19T11:54:02.521Z,15.35
2022-08-19T11:56:31.841Z,16.48
2022-08-19T11:59:02.627Z,15.02
2022-08-19T12:01:32.307Z,12.38
2022-08-19T12:04:01.538Z,14.75
2022-08-19T12:06:34.995Z,15.05
2022-08-19T12:09:09.517Z,13.32
2022-08-19T12:11:39.001Z,12.50
2022-08-19T12:14:09.182Z,13.23
2022-08-19T12:16:49.238Z,12.43
2022-08-19T12:19:22.593Z,14.30
2022-08-19T12:21:53.916Z,14.07
2022-08-19T12:24:25.462Z,12.60
2022-08-19T12:26:56.351Z,11.13
2022-08-19T12:29:30.661Z,10.65
2022-08-19T12:32:03.869Z,11.63
2022-08-19T12:34:35.064Z,11.55
2022-08-19T12:37:06.761Z,11.25
2022-08-19T12:39:43.380Z,11.02
2022-08-19T12:42:13.529Z,12.40
2022-08-19T12:44:44.823Z,10.18
2022-08-19T12:47:15.679Z,11.70
2022-08-19T12:49:54.000Z,12.77
2022-08-19T12:52:28.112Z,16.15
2022-08-19T12:54:59.620Z,11.32
2022-08-19T12:57:32.966Z,12.27
2022-08-19T13:00:07.215Z,11.07
2022-08-19T13:02:38.594Z,13.93
2022-08-19T13:05:11.429Z,14.30
2022-08-19T13:07:42.479Z,12.35
2022-08-19T13:10:16.271Z,11.77
2022-08-19T13:12:46.651Z,14.23
2022-08-19T13:15:23.771Z,16.27
2022-08-19T13:17:56.593Z,10.50
2022-08-19T13:20:26.891Z,14.15
2022-08-19T13:22:58.061Z,13.30
2022-08-19T13:25:28.513Z,13.02
2022-08-19T13:27:57.805Z,9.73
2022-08-19T13:30:44.280Z,10.27
2022-08-19T13:33:15.530Z,8.27
2022-08-19T13:35:49.810Z,11.23
2022-08-19T13:38:21.410Z,11.93
2022-08-19T13:40:53.433Z,10.70
2022-08-19T13:43:24.229Z,9.57
2022-08-19T13:45:57.431Z,10.27
2022-08-19T13:48:28.247Z,12.95
2022-08-19T13:50:57.388Z,13.13
2022-08-19T13:53:26.434Z,10.95
2022-08-19T13:55:56.849Z,10.30
2022-08-19T13:58:25.945Z,10.57
2022-08-19T14:00:58.208Z,9.73
2022-08-19T14:03:27.457Z,8.68
2022-08-19T14:05:56.541Z,10.45
2022-08-19T14:08:26.234Z,13.40
2022-08-19T14:10:56.743Z,10.02
2022-08-19T14:13:26.583Z,8.45
2022-08-19T14:15:55.686Z,8.85
2022-08-19T14:18:26.044Z,9.10
2022-08-19T14:20:57.755Z,10.45
2022-08-19T14:23:28.231Z,7.95
2022-08-19T14:26:07.497Z,8.15
2022-08-19T14:28:36.728Z,9.18
2022-08-19T14:31:05.956Z,7.95
2022-08-19T14:33:34.959Z,7.90
2022-08-19T14:36:04.468Z,8.32
2022-08-19T14:38:33.749Z,7.20
2022-08-19T14:41:13.302Z,10.68
2022-08-19T14:43:42.483Z,9.02
2022-08-19T14:46:13.541Z,8.02
2022-08-19T14:48:42.793Z,7.97
2022-08-19T14:51:12.699Z,8.93
2022-08-19T14:53:42.912Z,14.45
2022-08-19T14:56:14.871Z,8.50
2022-08-19T14:58:45.074Z,8.05
2022-08-19T15:01:15.199Z,9.23
2022-08-19T15:03:44.275Z,8.75
2022-08-19T15:06:13.306Z,11.27
2022-08-19T15:08:44.806Z,15.95
2022-08-19T15:11:18.644Z,9.05
2022-08-19T15:13:48.251Z,10.80
2022-08-19T15:16:18.508Z,9.38
2022-08-19T15:18:50.911Z,15.13
2022-08-19T15:21:26.525Z,15.00
2022-08-19T15:23:58.201Z,8.38
2022-08-19T15:26:32.382Z,9.05
2022-08-19T15:29:02.087Z,7.90
2022-08-19T15:31:32.972Z,8.77
2022-08-19T15:34:02.073Z,12.05
2022-08-19T15:36:31.315Z,14.90
2022-08-19T15:39:00.763Z,9.15
2022-08-19T15:41:32.362Z,9.40
2022-08-19T15:44:04.917Z,9.40
2022-08-19T15:46:36.904Z,10.63
2022-08-19T15:49:07.327Z,8.75
2022-08-19T15:51:39.084Z,10.25
2022-08-19T15:54:10.248Z,9.63
2022-08-19T15:57:07.545Z,10.60
2022-08-19T15:59:56.452Z,11.52
2022-08-19T16:02:47.766Z,7.78
2022-08-19T16:05:38.876Z,9.90
2022-08-19T16:08:09.844Z,8.80
2022-08-19T16:10:39.605Z,7.90
2022-08-19T16:13:10.939Z,9.00
2022-08-19T16:15:44.621Z,8.52
2022-08-19T16:18:13.781Z,8.73
2022-08-19T16:20:44.269Z,8.18
2022-08-19T16:23:13.309Z,7.28
2022-08-19T16:25:42.438Z,8.10
2022-08-19T16:28:13.147Z,8.20
2022-08-19T16:30:48.805Z,7.63
2022-08-19T16:33:22.967Z,13.63
2022-08-19T16:35:56.049Z,7.78
2022-08-19T16:38:30.249Z,7.55
2022-08-19T16:41:00.558Z,9.30
2022-08-19T16:43:32.026Z,9.20
2022-08-19T16:46:02.460Z,11.07
2022-08-19T16:48:32.942Z,11.10
2022-08-19T16:51:06.647Z,9.82
2022-08-19T16:53:39.537Z,9.27
2022-08-19T16:56:09.580Z,9.82
2022-08-19T16:58:41.008Z,7.53
2022-08-19T17:01:11.662Z,7.68
2022-08-19T17:03:41.195Z,10.02
2022-08-19T17:06:18.434Z,10.43
2022-08-19T17:08:54.258Z,9.75
2022-08-19T17:11:25.487Z,12.10
2022-08-19T17:13:58.907Z,10.85
2022-08-19T17:16:32.055Z,9.85
2022-08-19T17:19:03.503Z,9.77
2022-08-19T17:21:35.348Z,10.05
2022-08-19T17:24:06.582Z,9.07
2022-08-19T17:26:35.770Z,11.43
2022-08-19T17:29:09.281Z,10.80
2022-08-19T17:31:38.552Z,13.40
2022-08-19T17:34:09.299Z,12.23
2022-08-19T17:36:38.584Z,13.95
2022-08-19T17:39:07.886Z,12.23
2022-08-19T17:41:37.417Z,9.48
2022-08-19T17:44:11.142Z,9.00
2022-08-19T17:46:42.877Z,9.40
2022-08-19T17:49:12.295Z,12.35
2022-08-19T17:51:45.191Z,9.30
2022-08-19T17:54:16.609Z,12.13
2022-08-19T17:56:46.410Z,10.00
2022-08-19T17:59:18.515Z,10.45
2022-08-19T18:01:53.084Z,16.92
2022-08-19T18:04:25.467Z,13.90
2022-08-19T18:06:56.041Z,11.30
2022-08-19T18:09:27.346Z,10.80
2022-08-19T18:12:04.539Z,11.93
2022-08-19T18:14:37.865Z,14.35
2022-08-19T18:17:10.143Z,19.92
2022-08-19T18:19:43.118Z,13.63
2022-08-19T18:22:25.844Z,12.30
2022-08-19T18:24:56.344Z,12.73
2022-08-19T18:27:26.114Z,18.33
2022-08-19T18:29:59.617Z,10.35
2022-08-19T18:32:34.133Z,10.77
2022-08-19T18:35:11.197Z,10.80
2022-08-19T18:37:41.476Z,13.27
2022-08-19T18:40:45.838Z,14.80
2022-08-19T18:43:33.394Z,12.68
2022-08-19T18:46:21.686Z,11.50
2022-08-19T18:49:09.415Z,13.00
2022-08-19T18:51:42.358Z,13.90
2022-08-19T18:54:12.701Z,19.45
2022-08-19T18:56:45.392Z,14.32
2022-08-19T18:59:21.144Z,16.20
2022-08-19T19:01:54.790Z,13.88
2022-08-19T19:04:27.223Z,13.48
2022-08-19T19:06:56.834Z,14.13
2022-08-19T19:09:27.809Z,15.43
2022-08-19T19:11:59.873Z,16.20
2022-08-19T19:14:48.631Z,15.45
2022-08-19T19:17:28.876Z,15.02
2022-08-19T19:20:00.119Z,15.07
2022-08-19T19:22:29.488Z,15.13
2022-08-19T19:24:59.431Z,14.93
2022-08-19T19:27:30.286Z,15.48
2022-08-19T19:30:00.233Z,14.70
2022-08-19T19:32:38.980Z,15.80
2022-08-19T19:35:10.671Z,13.98
2022-08-19T19:37:39.766Z,16.48
2022-08-19T19:40:09.865Z,14.57
2022-08-19T19:42:39.051Z,21.38
2022-08-19T19:45:09.883Z,15.52
2022-08-19T19:47:42.599Z,21.67
2022-08-19T19:50:15.220Z,15.18
2022-08-19T19:52:50.971Z,16.50
2022-08-19T19:55:26.882Z,16.33
2022-08-19T19:57:57.711Z,18.48
2022-08-19T20:00:27.404Z,18.17
2022-08-19T20:02:58.292Z,18.52
2022-08-19T20:05:27.640Z,18.10
2022-08-19T20:08:14.814Z,19.20
2022-08-19T20:10:44.777Z,18.90
2022-08-19T20:13:15.412Z,18.17
2022-08-19T20:15:44.579Z,17.45
2022-08-19T20:18:15.445Z,18.33
2022-08-19T20:20:46.311Z,19.88
2022-08-19T20:23:15.540Z,19.05
2022-08-19T20:25:44.724Z,20.17
2022-08-19T20:28:14.005Z,17.30
2022-08-19T20:30:47.969Z,20.17
2022-08-19T20:33:20.097Z,22.52
2022-08-19T20:35:49.302Z,17.98
2022-08-19T20:38:18.447Z,16.30
2022-08-19T20:40:47.751Z,17.77
2022-08-19T20:43:16.999Z,15.82
2022-08-19T20:45:47.069Z,19.67
2022-08-19T20:48:19.970Z,19.08
2022-08-19T20:50:49.428Z,22.77
2022-08-19T20:53:22.870Z,21.33
2022-08-19T20:55:52.464Z,20.33
2022-08-19T20:58:25.107Z,20.38
2022-08-19T21:00:59.477Z,24.73
2022-08-19T21:03:32.460Z,23.40
2022-08-19T21:06:01.641Z,24.13
2022-08-19T21:08:30.941Z,21.25
2022-08-19T21:11:03.010Z,21.40
2022-08-19T21:13:32.205Z,24.75
2022-08-19T21:16:01.506Z,23.00
2022-08-19T21:18:35.716Z,24.52
2022-08-19T21:21:05.497Z,25.00
2022-08-19T21:23:34.626Z,27.05
2022-08-19T21:26:03.898Z,23.08
2022-08-19T21:28:36.096Z,25.33
2022-08-19T21:31:10.249Z,25.77
2022-08-19T21:33:41.000Z,25.92
2022-08-19T21:36:10.924Z,22.45
2022-08-19T21:38:41.139Z,26.70
2022-08-19T21:41:10.548Z,24.05
2022-08-19T21:43:40.438Z,26.30
2022-08-19T21:46:10.042Z,21.30
2022-08-19T21:48:40.639Z,29.45
2022-08-19T21:51:10.061Z,24.52
2022-08-19T21:53:39.490Z,24.98
2022-08-19T21:56:09.203Z,25.80
2022-08-19T21:58:38.254Z,20.45
2022-08-19T22:01:08.141Z,19.15
2022-08-19T22:03:41.874Z,24.02
2022-08-19T22:06:14.155Z,23.98
2022-08-19T22:08:44.936Z,20.48
2022-08-19T22:11:14.094Z,24.95
2022-08-19T22:13:43.710Z,18.38
2022-08-19T22:16:14.014Z,20.55
2022-08-19T22:18:47.684Z,19.67
2022-08-19T22:21:22.610Z,22.35
2022-08-19T22:24:08.739Z,23.83
2022-08-19T22:26:38.204Z,54.70
2022-08-19T22:29:08.787Z,41.75
2022-08-19T22:31:38.025Z,25.35
2022-08-19T22:34:09.649Z,28.10
2022-08-19T22:36:43.988Z,25.30
2022-08-19T22:39:13.435Z,23.85
2022-08-19T22:41:42.774Z,24.45
2022-08-19T22:44:12.014Z,23.92
2022-08-19T22:46:41.972Z,26.98
2022-08-19T22:49:11.491Z,23.70
2022-08-19T22:51:58.020Z,22.80
2022-08-19T22:54:28.504Z,23.30
2022-08-19T22:56:57.912Z,21.35
2022-08-19T22:59:27.005Z,24.45
2022-08-19T23:01:56.205Z,48.83
2022-08-19T23:04:25.272Z,25.23
2022-08-19T23:06:54.345Z,29.90
2022-08-19T23:09:23.756Z,22.98
2022-08-19T23:11:54.224Z,23.13
2022-08-19T23:14:23.666Z,20.48
2022-08-19T23:16:55.944Z,21.95
2022-08-19T23:19:28.046Z,22.30
2022-08-19T23:21:57.601Z,20.25
2022-08-19T23:24:27.206Z,19.10
2022-08-19T23:27:14.883Z,20.25
2022-08-19T23:30:01.391Z,21.20
2022-08-19T23:32:35.017Z,19.20
2022-08-19T23:35:05.869Z,24.05
2022-08-19T23:37:35.231Z,28.42
2022-08-19T23:40:05.505Z,26.25
2022-08-19T23:42:36.359Z,23.45
2022-08-19T23:45:07.660Z,21.80
2022-08-19T23:47:41.366Z,27.52
2022-08-19T23:50:11.616Z,26.10
2022-08-19T23:52:45.493Z,26.63
2022-08-19T23:55:15.958Z,29.88
2022-08-19T23:57:46.351Z,27.77
